Time;durP1;ratioP1;P1;durP2;ratioP2;P2;SDS_P1;SDS_P2;PMS_P1;PMS_P2;Temp;Humidity;BMP_temperature;BMP_pressure;BME280_temperature;BME280_humidity;BME280_pressure;Samples;Min_cycle;Max_cycle;Signal;HPM_P1;HPM_P2
2023/10/03 00:02:06;;;;;;;;;;;;;;;29.08;40.15;94661.16;4993103;28;9079;-62
2023/10/03 00:04:34;;;;;;;;;;;;;;;29.05;41.17;94662.25;5004677;28;7248;-62
2023/10/03 00:07:00;;;;;;;;;;;;;;;29.02;41.00;94660.53;5012369;28;7260;-62
2023/10/03 00:09:55;;;;;;;;;;;;;;;29.05;40.63;94669.81;5004470;28;8039;-62
2023/10/03 00:12:40;;;;;;;;;;;;;;;29.04;40.95;94671.06;5037053;28;7231;-62
2023/10/03 00:15:36;;;;;;;;;;;;;;;29.06;40.81;94665.75;4991839;28;7041;-62
2023/10/03 00:18:04;;;;;;;;;;;;;;;29.04;40.68;94674.59;5078229;28;7472;-61
2023/10/03 00:20:50;;;;;;;;;;;;;;;29.05;40.53;94669.81;5048962;28;7217;-61
2023/10/03 00:23:50;;;;;;;;;;;;;;;29.04;40.63;94669.03;5058653;28;7424;-62
2023/10/03 00:26:44;;;;;;;;;;;;;;;29.04;41.06;94660.72;5013082;28;7258;-62
2023/10/03 00:29:23;;;;;;;;;;;;;;;29.04;41.24;94657.22;5036588;28;9060;-62
2023/10/03 00:32:04;;;;;;;;;;;;;;;29.04;40.78;94649.66;5040918;28;8460;-61
2023/10/03 00:34:43;;;;;;;;;;;;;;;29.05;40.45;94655.94;5017430;28;7193;-62
2023/10/03 00:37:11;;;;;;;;;;;;;;;29.03;40.24;94655.72;5021811;28;7248;-61
2023/10/03 00:40:16;;;;;;;;;;;;;;;29.04;41.28;94651.66;5010198;28;7245;-61
2023/10/03 00:43:04;;;;;;;;;;;;;;;29.03;41.25;94650.94;5028278;28;7223;-62
2023/10/03 00:45:59;;;;;;;;;;;;;;;29.02;40.41;94643.16;5025221;28;9142;-62
2023/10/03 00:48:51;;;;;;;;;;;;;;;29.01;41.30;94642.41;4939880;28;9259;-62
2023/10/03 00:51:20;;;;;;;;;;;;;;;29.00;40.96;94642.94;4937185;28;7094;-61
2023/10/03 00:53:50;;;;;;;;;;;;;;;29.02;41.09;94645.91;4945826;28;7191;-61
2023/10/03 00:56:16;;;;;;;;;;;;;;;29.02;40.71;94646.66;4934160;28;7674;-62
2023/10/03 00:58:42;;;;;;;;;;;;;;;29.01;41.02;94642.41;4935135;28;9050;-62
2023/10/03 01:01:13;;;;;;;;;;;;;;;29.01;40.57;94639.63;4947530;28;7388;-61
2023/10/03 01:03:41;;;;;;;;;;;;;;;28.99;40.89;94630.38;4978625;28;8825;-61
2023/10/03 01:06:12;;;;;;;;;;;;;;;28.99;40.93;94639.41;4989182;28;9076;-61
2023/10/03 01:08:41;;;;;;;;;;;;;;;28.99;40.63;94633.88;4988674;28;8797;-62
2023/10/03 01:11:19;;;;;;;;;;;;;;;28.99;40.63;94631.09;4964928;28;7486;-62
2023/10/03 01:14:00;;;;;;;;;;;;;;;28.97;41.18;94636.41;4995543;28;7075;-61
2023/10/03 01:16:36;;;;;;;;;;;;;;;28.97;40.25;94633.66;4996829;28;7077;-61
2023/10/03 01:19:19;;;;;;;;;;;;;;;28.97;41.05;94625.34;4962749;28;7258;-61
2023/10/03 01:22:11;;;;;;;;;;;;;;;28.97;40.68;94628.09;4994164;28;7093;-61
2023/10/03 01:24:41;;;;;;;;;;;;;;;28.97;41.18;94619.81;5005007;28;6990;-61
2023/10/03 01:27:07;;;;;;;;;;;;;;;28.97;40.58;94621.84;5052950;28;7219;-61
2023/10/03 01:29:34;;;;;;;;;;;;;;;28.96;40.54;94623.88;5062737;28;7158;-61
2023/10/03 01:32:00;;;;;;;;;;;;;;;28.95;40.35;94630.66;5048716;28;6993;-61
2023/10/03 01:34:27;;;;;;;;;;;;;;;28.92;41.40;94628.22;5059784;28;8981;-61
2023/10/03 01:36:58;;;;;;;;;;;;;;;28.93;40.70;94627.69;5052778;28;7180;-61
2023/10/03 01:39:35;;;;;;;;;;;;;;;28.90;41.08;94619.69;5062024;28;7130;-61
2023/10/03 01:42:06;;;;;;;;;;;;;;;28.92;41.63;94620.66;5052928;28;6997;-61
2023/10/03 01:44:36;;;;;;;;;;;;;;;28.92;41.30;94617.88;5062428;28;7272;-61
2023/10/03 01:47:03;;;;;;;;;;;;;;;28.92;40.90;94623.44;5077911;28;8773;-61
2023/10/03 01:49:30;;;;;;;;;;;;;;;28.88;40.53;94606.34;5073074;28;6989;-61
2023/10/03 01:51:58;;;;;;;;;;;;;;;28.92;41.14;94617.88;5066110;28;9139;-62
2023/10/03 01:54:29;;;;;;;;;;;;;;;28.93;40.95;94619.38;5081487;28;7282;-62
2023/10/03 01:56:56;;;;;;;;;;;;;;;28.91;40.87;94615.63;5085596;28;8867;-61
2023/10/03 01:59:24;;;;;;;;;;;;;;;28.92;40.94;94617.13;5073279;28;9087;-61
2023/10/03 02:02:08;;;;;;;;;;;;;;;28.93;40.85;94608.28;5081691;28;7184;-62
2023/10/03 02:05:03;;;;;;;;;;;;;;;28.93;40.81;94608.28;5071292;28;9156;-61
2023/10/03 02:07:43;;;;;;;;;;;;;;;28.92;41.42;94606.81;5029013;28;8695;-62
2023/10/03 02:10:14;;;;;;;;;;;;;;;28.90;41.32;94612.13;5016949;28;8816;-62
2023/10/03 02:12:49;;;;;;;;;;;;;;;28.87;41.07;94604.88;5014027;28;7169;-61
2023/10/03 02:15:23;;;;;;;;;;;;;;;28.89;41.40;94612.63;5006436;28;7304;-62
2023/10/03 02:17:51;;;;;;;;;;;;;;;28.89;41.34;94599.56;5013628;28;7367;-62
2023/10/03 02:20:20;;;;;;;;;;;;;;;28.89;41.75;94601.56;5016350;28;7058;-61
2023/10/03 02:22:57;;;;;;;;;;;;;;;28.90;41.42;94603.06;5013563;28;9340;-61
2023/10/03 02:25:35;;;;;;;;;;;;;;;28.87;41.35;94593.03;5011761;28;8760;-62
2023/10/03 02:28:02;;;;;;;;;;;;;;;28.85;41.52;94596.34;5010229;28;7450;-61
2023/10/03 02:30:51;;;;;;;;;;;;;;;28.87;41.21;94599.34;5034032;28;8799;-61
2023/10/03 02:33:21;;;;;;;;;;;;;;;28.86;41.13;94597.81;5022652;28;7052;-61
2023/10/03 02:35:47;;;;;;;;;;;;;;;28.88;41.80;94600.09;5021482;28;9286;-61
2023/10/03 02:38:25;;;;;;;;;;;;;;;28.85;40.91;94596.34;5011451;28;7126;-61
2023/10/03 02:41:24;;;;;;;;;;;;;;;28.86;41.61;94594.34;5020539;28;8920;-61
2023/10/03 02:43:55;;;;;;;;;;;;;;;28.87;40.91;94596.56;5019082;28;6986;-61
2023/10/03 02:46:34;;;;;;;;;;;;;;;28.85;41.78;94596.34;5065580;28;7033;-61
2023/10/03 02:49:02;;;;;;;;;;;;;;;28.85;41.43;94595.59;5056697;28;7030;-61
2023/10/03 02:51:30;;;;;;;;;;;;;;;28.84;41.14;94594.84;5071598;28;7172;-61
2023/10/03 02:53:58;;;;;;;;;;;;;;;28.81;40.63;94582.06;5053401;28;8756;-62
2023/10/03 02:56:40;;;;;;;;;;;;;;;28.83;40.75;94581.53;5078903;28;7333;-61
2023/10/03 02:59:20;;;;;;;;;;;;;;;28.81;41.06;94573.75;5056410;28;7238;-61
2023/10/03 03:01:56;;;;;;;;;;;;;;;28.83;41.68;94587.81;5072199;28;7228;-61
2023/10/03 03:04:48;;;;;;;;;;;;;;;28.82;40.77;94586.31;5063483;28;8822;-61
2023/10/03 03:07:17;;;;;;;;;;;;;;;28.82;41.83;94583.53;5052747;28;7221;-61
2023/10/03 03:09:56;;;;;;;;;;;;;;;28.82;41.33;94580.78;5054601;28;9098;-61
2023/10/03 03:12:57;;;;;;;;;;;;;;;28.83;41.50;94582.28;5067840;28;7246;-61
2023/10/03 03:15:26;;;;;;;;;;;;;;;28.82;41.14;94588.34;5010358;28;9205;-62
2023/10/03 03:18:02;;;;;;;;;;;;;;;28.83;40.79;94581.53;5005734;28;7304;-62
2023/10/03 03:21:04;;;;;;;;;;;;;;;28.81;41.11;94590.38;5003201;28;7242;-62
2023/10/03 03:23:56;;;;;;;;;;;;;;;28.82;40.73;94586.31;4964643;28;9163;-60
2023/10/03 03:27:19;;;;;;;;;;;;;;;28.82;40.97;94589.09;4968794;28;7383;-60
2023/10/03 03:33:00;;;;;;;;;;;;;;;28.80;40.58;94582.56;4950903;28;7390;-60
2023/10/03 03:35:38;;;;;;;;;;;;;;;28.79;41.20;94584.63;4953019;28;8686;-60
2023/10/03 03:38:20;;;;;;;;;;;;;;;28.79;41.13;94581.84;4950615;28;7220;-60
2023/10/03 03:40:58;;;;;;;;;;;;;;;28.79;41.07;94590.16;4938256;28;9014;-60
2023/10/03 03:43:43;;;;;;;;;;;;;;;28.79;41.42;94587.38;4952114;29;7241;-60
2023/10/03 03:46:12;;;;;;;;;;;;;;;28.77;41.13;94581.63;4967174;28;7300;-60
2023/10/03 03:49:08;;;;;;;;;;;;;;;28.80;41.51;94582.56;4952324;29;7276;-60
2023/10/03 03:51:45;;;;;;;;;;;;;;;28.77;41.02;94592.72;4985112;28;7160;-60
2023/10/03 03:54:24;;;;;;;;;;;;;;;28.78;40.53;94596.97;4989629;28;7275;-60
2023/10/03 03:56:59;;;;;;;;;;;;;;;28.73;40.64;94594.28;5005704;28;7249;-60
2023/10/03 04:00:19;;;;;;;;;;;;;;;28.77;41.64;94598.25;4995819;28;9244;-60
2023/10/03 04:02:47;;;;;;;;;;;;;;;28.75;41.48;94588.97;5027644;28;7268;-60
2023/10/03 04:05:35;;;;;;;;;;;;;;;28.74;40.95;94590.97;5027247;28;7216;-60
2023/10/03 04:08:04;;;;;;;;;;;;;;;28.71;41.44;94589.25;5010805;28;8283;-60
2023/10/03 04:10:58;;;;;;;;;;;;;;;28.68;41.36;94586.81;5026633;28;8754;-60
2023/10/03 04:13:49;;;;;;;;;;;;;;;28.65;41.48;94588.59;5028772;28;6977;-60
2023/10/03 04:16:28;;;;;;;;;;;;;;;28.62;40.85;94591.69;5004209;28;9094;-60
2023/10/03 04:19:18;;;;;;;;;;;;;;;28.60;41.52;94583.88;5032406;28;7389;-60
2023/10/03 04:22:00;;;;;;;;;;;;;;;28.58;41.19;94586.44;5021395;28;9092;-60
2023/10/03 04:24:27;;;;;;;;;;;;;;;28.59;41.64;94590.72;5024753;28;7119;-60
2023/10/03 04:26:54;;;;;;;;;;;;;;;28.59;41.50;94582.41;5012615;28;7072;-60
2023/10/03 04:29:21;;;;;;;;;;;;;;;28.56;41.73;94572.34;5026264;28;7022;-60
2023/10/03 04:31:47;;;;;;;;;;;;;;;28.58;41.72;94575.38;5020772;28;7369;-60
2023/10/03 04:34:18;;;;;;;;;;;;;;;28.58;41.49;94582.94;5029375;28;9092;-61
2023/10/03 04:36:54;;;;;;;;;;;;;;;28.57;41.26;94579.41;5028725;28;7127;-61
2023/10/03 04:39:25;;;;;;;;;;;;;;;28.60;41.80;94575.59;5080985;28;7609;-61
2023/10/03 04:41:58;;;;;;;;;;;;;;;28.59;41.14;94578.88;5085590;28;8822;-60
2023/10/03 04:44:28;;;;;;;;;;;;;;;28.57;40.97;94576.66;5080801;28;6969;-61
2023/10/03 04:47:11;;;;;;;;;;;;;;;28.61;41.32;94582.63;5080457;28;7175;-61
2023/10/03 04:49:40;;;;;;;;;;;;;;;28.58;41.49;94589.22;5053399;28;7217;-60
2023/10/03 04:52:08;;;;;;;;;;;;;;;28.57;41.87;94581.41;5053233;28;8983;-61
2023/10/03 04:54:54;;;;;;;;;;;;;;;28.56;41.67;94586.19;5065789;28;8967;-62
2023/10/03 04:57:33;;;;;;;;;;;;;;;28.56;41.29;94585.47;5064622;28;9153;-61
2023/10/03 05:00:11;;;;;;;;;;;;;;;28.54;41.98;94580.44;5082658;28;8760;-61
2023/10/03 05:02:42;;;;;;;;;;;;;;;28.54;41.98;94583.22;5072069;28;9019;-60
2023/10/03 05:05:10;;;;;;;;;;;;;;;28.55;41.62;94587.47;5070832;28;9761;-61
2023/10/03 05:07:45;;;;;;;;;;;;;;;28.52;42.24;94582.22;5064012;28;7872;-61
2023/10/03 05:10:31;;;;;;;;;;;;;;;28.53;41.48;94576.19;5062118;28;7040;-61
2023/10/03 05:13:43;;;;;;;;;;;;;;;28.52;42.19;94582.97;5055012;28;7237;-62
2023/10/03 05:16:11;;;;;;;;;;;;;;;28.51;42.00;94592.56;5022554;28;7472;-62
2023/10/03 05:18:39;;;;;;;;;;;;;;;28.52;42.30;94594.06;5024980;28;7150;-62
2023/10/03 05:21:06;;;;;;;;;;;;;;;28.50;42.24;94593.06;5008888;28;7243;-61
2023/10/03 05:24:08;;;;;;;;;;;;;;;28.52;42.05;94593.31;5004756;28;7019;-61
2023/10/03 05:26:45;;;;;;;;;;;;;;;28.51;42.00;94600.13;4920943;28;7276;-61
2023/10/03 05:29:21;;;;;;;;;;;;;;;28.52;41.52;94605.13;4917599;29;9121;-61
2023/10/03 05:31:49;;;;;;;;;;;;;;;28.52;42.00;94609.91;4938014;28;7438;-60
2023/10/03 05:34:36;;;;;;;;;;;;;;;28.52;41.17;94615.44;4918719;28;9192;-62
2023/10/03 05:37:02;;;;;;;;;;;;;;;28.51;41.37;94616.72;4936411;28;7408;-62
2023/10/03 05:39:31;;;;;;;;;;;;;;;28.51;42.04;94616.72;4913887;29;9465;-62
2023/10/03 05:42:08;;;;;;;;;;;;;;;28.47;41.97;94614.25;4929266;28;7260;-62
2023/10/03 05:44:54;;;;;;;;;;;;;;;28.49;41.21;94622.03;4939891;28;8113;-60
2023/10/03 05:47:36;;;;;;;;;;;;;;;28.47;41.58;94621.81;4934475;28;7833;-60
2023/10/03 05:50:28;;;;;;;;;;;;;;;28.48;41.40;94620.53;4931696;28;9180;-60
2023/10/03 05:52:55;;;;;;;;;;;;;;;28.46;41.25;94609.25;4950069;28;7244;-60
2023/10/03 05:55:23;;;;;;;;;;;;;;;28.45;41.72;94619.56;4967298;28;7218;-60
2023/10/03 05:57:49;;;;;;;;;;;;;;;28.43;41.30;94610.31;4969470;28;9079;-60
2023/10/03 06:00:18;;;;;;;;;;;;;;;28.43;41.16;94616.56;4956202;28;7409;-60
2023/10/03 06:02:47;;;;;;;;;;;;;;;28.44;41.34;94617.31;5030157;28;7186;-60
2023/10/03 06:05:17;;;;;;;;;;;;;;;28.43;40.90;94622.09;5054713;28;7170;-60
2023/10/03 06:07:46;;;;;;;;;;;;;;;28.43;40.91;94627.63;5069509;28;6991;-60
2023/10/03 06:10:16;;;;;;;;;;;;;;;28.40;40.69;94616.88;5053569;28;9100;-60
2023/10/03 06:12:44;;;;;;;;;;;;;;;28.42;40.81;94623.38;5049432;28;6984;-60
2023/10/03 06:15:12;;;;;;;;;;;;;;;28.41;40.24;94627.41;5052445;28;9093;-60
2023/10/03 06:17:40;;;;;;;;;;;;;;;28.39;40.16;94629.97;5055987;28;7467;-60
2023/10/03 06:20:07;;;;;;;;;;;;;;;28.39;40.52;94629.97;5056121;28;7000;-60
2023/10/03 06:22:33;;;;;;;;;;;;;;;28.36;40.65;94626.22;5067517;28;9010;-59
2023/10/03 06:24:59;;;;;;;;;;;;;;;28.38;40.60;94630.50;5038062;28;7057;-60
2023/10/03 06:27:30;;;;;;;;;;;;;;;28.39;40.39;94635.50;5057742;28;7004;-60
2023/10/03 06:29:56;;;;;;;;;;;;;;;28.38;39.86;94636.78;5066557;28;7198;-60
2023/10/03 06:32:22;;;;;;;;;;;;;;;28.36;40.27;94631.03;5038252;28;9410;-60
2023/10/03 06:34:48;;;;;;;;;;;;;;;28.37;40.28;94632.50;5051354;28;7566;-60
2023/10/03 06:37:14;;;;;;;;;;;;;;;28.38;40.60;94634.00;5061097;28;8752;-60
2023/10/03 06:39:41;;;;;;;;;;;;;;;28.38;40.58;94637.50;5055884;28;9069;-60
2023/10/03 06:42:11;;;;;;;;;;;;;;;28.40;40.48;94634.22;5047111;28;7215;-60
2023/10/03 06:44:37;;;;;;;;;;;;;;;28.40;40.34;94630.72;5067320;28;7078;-59
2023/10/03 06:47:13;;;;;;;;;;;;;;;28.40;41.17;94634.22;5052286;28;7040;-60
2023/10/03 06:50:01;;;;;;;;;;;;;;;28.41;41.04;94632.94;5046237;28;7064;-60
2023/10/03 06:52:28;;;;;;;;;;;;;;;28.39;41.45;94629.97;5043085;28;7001;-60
2023/10/03 06:55:10;;;;;;;;;;;;;;;28.41;41.67;94635.72;5047869;28;7252;-61
2023/10/03 06:57:57;;;;;;;;;;;;;;;28.42;41.43;94626.16;5051335;28;8946;-61
2023/10/03 07:00:58;;;;;;;;;;;;;;;28.44;41.49;94640.22;5055284;28;7350;-61
2023/10/03 07:03:24;;;;;;;;;;;;;;;28.44;41.02;94634.69;5061919;28;9396;-61
2023/10/03 07:05:50;;;;;;;;;;;;;;;28.45;41.57;94636.16;5045542;28;8715;-61
2023/10/03 07:08:19;;;;;;;;;;;;;;;28.44;41.34;94640.22;5048762;28;9198;-61
2023/10/03 07:10:46;;;;;;;;;;;;;;;28.44;40.87;94634.69;5076277;28;7339;-61
2023/10/03 07:13:16;;;;;;;;;;;;;;;28.47;41.85;94643.97;5049525;28;8785;-61
2023/10/03 07:15:44;;;;;;;;;;;;;;;28.43;41.28;94635.94;5085169;28;7240;-61
2023/10/03 07:18:10;;;;;;;;;;;;;;;28.45;41.13;94641.69;5065253;28;7216;-61
2023/10/03 07:20:40;;;;;;;;;;;;;;;28.46;41.49;94637.66;5058864;28;8908;-61
2023/10/03 07:23:13;;;;;;;;;;;;;;;28.45;41.00;94630.63;5053642;28;7141;-61
2023/10/03 07:25:52;;;;;;;;;;;;;;;28.45;41.54;94643.72;5053122;28;7211;-61
2023/10/03 07:28:27;;;;;;;;;;;;;;;28.46;41.08;94637.66;5054494;28;6990;-61
2023/10/03 07:31:07;;;;;;;;;;;;;;;28.45;41.56;94640.97;5071828;28;7005;-60
2023/10/03 07:33:45;;;;;;;;;;;;;;;28.47;41.31;94636.38;5081614;28;9157;-61
2023/10/03 07:36:13;;;;;;;;;;;;;;;28.48;41.35;94645.44;5059265;28;8766;-61
2023/10/03 07:38:41;;;;;;;;;;;;;;;28.49;41.42;94649.72;5055994;28;7209;-60
2023/10/03 07:41:36;;;;;;;;;;;;;;;28.52;40.87;94657.69;5067389;28;9082;-61
2023/10/03 07:44:04;;;;;;;;;;;;;;;28.51;41.29;94647.91;4997561;28;7226;-61
2023/10/03 07:46:57;;;;;;;;;;;;;;;28.53;41.83;94650.91;5006886;28;6978;-61
2023/10/03 07:49:33;;;;;;;;;;;;;;;28.52;40.95;94652.16;4991113;28;8875;-61
2023/10/03 07:52:04;;;;;;;;;;;;;;;28.51;41.27;94652.69;5015414;28;7209;-61
2023/10/03 07:54:37;;;;;;;;;;;;;;;28.50;40.91;94660.25;5000914;28;8784;-61
2023/10/03 07:57:23;;;;;;;;;;;;;;;28.49;41.46;94656.00;5007150;28;7167;-61
2023/10/03 08:00:26;;;;;;;;;;;;;;;28.48;41.39;94660.03;4989587;28;7176;-61
2023/10/03 08:03:17;;;;;;;;;;;;;;;28.47;41.88;94650.22;4916924;29;9402;-61
2023/10/03 08:05:58;;;;;;;;;;;;;;;28.43;41.50;94669.13;4908963;29;9202;-61
2023/10/03 08:08:29;;;;;;;;;;;;;;;28.44;41.37;94656.81;4901900;29;7229;-61
2023/10/03 08:11:06;;;;;;;;;;;;;;;28.43;41.72;94660.84;4898430;29;9139;-61
2023/10/03 08:13:39;;;;;;;;;;;;;;;28.44;41.80;94662.34;4916909;29;7192;-64
2023/10/03 08:16:07;;;;;;;;;;;;;;;28.44;41.18;94650.53;4909395;29;8744;-64
2023/10/03 08:18:57;;;;;;;;;;;;;;;28.41;40.96;94649.53;4902515;29;7006;-64
2023/10/03 08:21:30;;;;;;;;;;;;;;;28.37;41.26;94660.16;4933326;28;7418;-64
2023/10/03 08:23:59;;;;;;;;;;;;;;;28.40;41.24;94659.13;4952952;28;9393;-64
2023/10/03 08:26:26;;;;;;;;;;;;;;;28.42;41.69;94667.66;4930659;28;7902;-64
2023/10/03 08:28:59;;;;;;;;;;;;;;;28.42;41.27;94658.59;4925859;28;8770;-64
2023/10/03 08:31:38;;;;;;;;;;;;;;;28.41;41.58;94662.63;4940476;28;7009;-64
2023/10/03 08:34:15;;;;;;;;;;;;;;;28.38;41.44;94661.69;4931336;28;9096;-64
2023/10/03 08:36:54;;;;;;;;;;;;;;;28.36;40.89;94656.66;4947407;28;7327;-64
2023/10/03 08:39:34;;;;;;;;;;;;;;;28.40;40.96;94656.38;5026982;28;7227;-64
2023/10/03 08:42:15;;;;;;;;;;;;;;;28.42;41.13;94670.44;5066249;28;7293;-65
2023/10/03 08:44:51;;;;;;;;;;;;;;;28.44;41.25;94662.34;5051350;28;7437;-64
2023/10/03 08:47:28;;;;;;;;;;;;;;;28.42;41.75;94656.59;5068953;28;7242;-64
2023/10/03 08:50:38;;;;;;;;;;;;;;;28.45;41.65;94665.88;5061498;28;7505;-65
2023/10/03 08:53:17;;;;;;;;;;;;;;;28.47;41.47;94660.56;5034538;28;8898;-65
2023/10/03 08:55:46;;;;;;;;;;;;;;;28.45;41.09;94669.34;5068257;28;9075;-64
2023/10/03 08:58:32;;;;;;;;;;;;;;;28.48;41.11;94678.63;5082223;28;9132;-65
2023/10/03 09:01:07;;;;;;;;;;;;;;;28.49;41.18;94674.63;5067691;28;7204;-65
2023/10/03 09:03:51;;;;;;;;;;;;;;;28.46;41.74;94673.63;5073339;28;7250;-65
2023/10/03 09:06:23;;;;;;;;;;;;;;;28.47;41.01;94674.38;5069411;28;7308;-64
2023/10/03 09:09:07;;;;;;;;;;;;;;;28.46;41.32;94676.41;5062516;28;7234;-64
2023/10/03 09:11:51;;;;;;;;;;;;;;;28.44;41.67;94672.66;5052105;28;6984;-64
2023/10/03 09:14:20;;;;;;;;;;;;;;;28.49;41.96;94678.13;5068993;28;7265;-66
2023/10/03 09:16:59;;;;;;;;;;;;;;;28.47;41.54;94675.13;5074475;28;7191;-64
2023/10/03 09:19:50;;;;;;;;;;;;;;;28.52;41.78;94673.53;5047805;28;7179;-65
2023/10/03 09:23:17;;;;;;;;;;;;;;;28.51;41.73;94670.06;5049985;28;7228;-64
2023/10/03 09:25:55;;;;;;;;;;;;;;;28.53;41.52;94667.50;5089699;28;7316;-62
2023/10/03 09:28:35;;;;;;;;;;;;;;;28.51;41.78;94670.06;5087696;28;7234;-62
2023/10/03 09:31:08;;;;;;;;;;;;;;;28.54;41.99;94671.75;5086342;28;7262;-62
2023/10/03 09:33:45;;;;;;;;;;;;;;;28.52;42.15;94663.22;5068467;28;6977;-62
2023/10/03 09:36:28;;;;;;;;;;;;;;;28.54;41.73;94666.22;5057654;28;8208;-61
2023/10/03 09:39:26;;;;;;;;;;;;;;;28.54;41.88;94671.75;5049653;28;8212;-62
2023/10/03 09:42:26;;;;;;;;;;;;;;;28.55;42.04;94658.69;5061220;28;6993;-62
2023/10/03 09:44:59;;;;;;;;;;;;;;;28.56;42.45;94669.22;5028272;28;7100;-62
2023/10/03 09:47:34;;;;;;;;;;;;;;;28.56;42.00;94663.69;5042966;28;7275;-62
2023/10/03 09:50:08;;;;;;;;;;;;;;;28.57;42.06;94665.22;5045128;28;7088;-62
2023/10/03 09:52:38;;;;;;;;;;;;;;;28.57;41.90;94654.16;5044705;28;7285;-62
2023/10/03 09:55:17;;;;;;;;;;;;;;;28.57;41.87;94656.91;5016707;28;7128;-62
2023/10/03 09:57:59;;;;;;;;;;;;;;;28.56;42.21;94652.59;5030338;28;7032;-61
2023/10/03 10:03:26;;;;;;;;;;;;;;;28.56;42.05;94660.91;5030064;28;7101;-62
2023/10/03 10:06:24;;;;;;;;;;;;;;;28.56;41.98;94660.19;5038659;28;7179;-61
2023/10/03 10:09:00;;;;;;;;;;;;;;;28.58;42.40;94657.66;5007734;28;7261;-62
2023/10/03 10:11:27;;;;;;;;;;;;;;;28.61;42.03;94656.59;5032988;28;9459;-61
2023/10/03 10:14:09;;;;;;;;;;;;;;;28.62;41.81;94660.88;5007548;28;6992;-61
2023/10/03 10:20:13;;;;;;;;;;;;;;;28.69;41.84;94666.53;5034455;28;7387;-61
2023/10/03 10:25:43;;;;;;;;;;;;;;;28.69;42.04;94655.47;5070195;28;9548;-61
2023/10/03 10:28:27;;;;;;;;;;;;;;;28.71;41.76;94658.47;5064162;28;7265;-61
2023/10/03 10:31:21;;;;;;;;;;;;;;;28.74;41.80;94668.50;5065458;28;7098;-61
2023/10/03 10:33:50;;;;;;;;;;;;;;;28.74;42.48;94664.97;5069049;28;7215;-59
2023/10/03 10:36:21;;;;;;;;;;;;;;;28.77;41.26;94666.69;5062638;28;7206;-60
2023/10/03 10:38:56;;;;;;;;;;;;;;;28.74;41.55;94657.41;5073105;28;7258;-60
2023/10/03 10:41:30;;;;;;;;;;;;;;;28.77;41.97;94661.91;5074535;28;7177;-60
2023/10/03 10:44:16;;;;;;;;;;;;;;;28.79;42.11;94664.91;5059914;28;9188;-60
2023/10/03 10:46:47;;;;;;;;;;;;;;;28.80;42.46;94660.84;5081090;28;8794;-59
2023/10/03 10:49:34;;;;;;;;;;;;;;;28.80;42.28;94654.56;5069190;28;7289;-59
2023/10/03 10:52:06;;;;;;;;;;;;;;;28.81;41.80;94661.59;5079572;28;7164;-59
2023/10/03 10:54:52;;;;;;;;;;;;;;;28.83;42.26;94659.06;5082339;28;7506;-59
2023/10/03 10:57:31;;;;;;;;;;;;;;;28.82;41.84;94640.94;5054483;28;7014;-60
2023/10/03 11:00:22;;;;;;;;;;;;;;;28.84;41.59;94639.13;5054341;28;6978;-59
2023/10/03 11:02:49;;;;;;;;;;;;;;;28.87;42.41;94640.13;5061720;28;9044;-59
2023/10/03 11:05:15;;;;;;;;;;;;;;;28.86;42.24;94636.59;5067527;28;8874;-60
2023/10/03 11:07:55;;;;;;;;;;;;;;;28.87;41.78;94638.09;5076992;28;7646;-60
2023/10/03 11:10:21;;;;;;;;;;;;;;;28.89;41.48;94624.47;5057362;28;8793;-60
2023/10/03 11:13:03;;;;;;;;;;;;;;;28.89;41.61;94635.53;5061491;28;7274;-60
2023/10/03 11:15:33;;;;;;;;;;;;;;;28.91;42.52;94621.91;5071447;28;9045;-60
2023/10/03 11:18:02;;;;;;;;;;;;;;;28.92;42.62;94614.38;5071546;28;7334;-60
2023/10/03 11:20:32;;;;;;;;;;;;;;;28.91;42.20;94616.38;5055673;28;7261;-60
2023/10/03 11:23:00;;;;;;;;;;;;;;;28.94;41.51;94615.34;5057235;28;7456;-60
2023/10/03 11:25:28;;;;;;;;;;;;;;;28.92;41.81;94606.81;5056560;28;7272;-60
2023/10/03 11:28:05;;;;;;;;;;;;;;;28.95;41.96;94610.53;5057140;28;9351;-60
2023/10/03 11:30:31;;;;;;;;;;;;;;;28.96;42.23;94609.25;5061674;28;9039;-60
2023/10/03 11:33:01;;;;;;;;;;;;;;;28.96;41.60;94607.25;5060991;28;9085;-60
2023/10/03 11:35:35;;;;;;;;;;;;;;;28.95;42.24;94600.19;5057451;28;7333;-60
2023/10/03 11:38:19;;;;;;;;;;;;;;;28.97;42.24;94608.00;5071900;28;9258;-60
2023/10/03 11:40:47;;;;;;;;;;;;;;;28.97;42.69;94602.47;5078483;28;7686;-60
2023/10/03 11:43:31;;;;;;;;;;;;;;;28.93;42.19;94591.69;5051068;28;9251;-62
2023/10/03 11:45:59;;;;;;;;;;;;;;;28.98;41.92;94595.63;5086356;28;7201;-62
2023/10/03 11:48:45;;;;;;;;;;;;;;;28.99;41.87;94599.91;5074740;28;8709;-62
2023/10/03 11:51:25;;;;;;;;;;;;;;;28.98;41.72;94592.88;5064581;28;6971;-62
2023/10/03 11:54:14;;;;;;;;;;;;;;;29.01;41.15;94594.59;5075548;28;8798;-62
2023/10/03 11:56:52;;;;;;;;;;;;;;;28.99;41.92;94591.59;5077862;28;9186;-62
2023/10/03 11:59:44;;;;;;;;;;;;;;;28.98;41.13;94601.94;5083810;28;8778;-62
2023/10/03 12:02:24;;;;;;;;;;;;;;;29.01;42.54;94602.91;5069807;28;7507;-62
2023/10/03 12:04:56;;;;;;;;;;;;;;;28.99;42.24;94597.16;5055632;28;7333;-61
2023/10/03 12:07:24;;;;;;;;;;;;;;;28.92;41.43;94590.19;5062399;28;7034;-62
2023/10/03 12:10:02;;;;;;;;;;;;;;;28.94;42.36;94595.94;5060611;28;7290;-62
2023/10/03 12:12:45;;;;;;;;;;;;;;;28.97;41.80;94596.94;5057580;28;9389;-62
2023/10/03 12:15:42;;;;;;;;;;;;;;;28.95;42.05;94599.44;5044007;28;7263;-62
2023/10/03 12:18:15;;;;;;;;;;;;;;;28.95;42.52;94600.19;5080599;28;7229;-62
2023/10/03 12:21:03;;;;;;;;;;;;;;;28.99;41.76;94594.38;5072114;28;7262;-61
2023/10/03 12:23:41;;;;;;;;;;;;;;;29.01;42.06;94589.78;5066138;28;8259;-61
2023/10/03 12:26:16;;;;;;;;;;;;;;;28.99;42.38;94584.03;5074373;28;8826;-62
2023/10/03 12:28:49;;;;;;;;;;;;;;;29.03;42.53;94581.72;5077755;28;7357;-62
2023/10/03 12:31:27;;;;;;;;;;;;;;;29.00;41.68;94574.44;5061782;28;9070;-61
2023/10/03 12:33:55;;;;;;;;;;;;;;;29.02;41.55;94574.66;5054956;28;9612;-62
2023/10/03 12:36:32;;;;;;;;;;;;;;;29.05;41.73;94573.63;5083762;28;9097;-62
2023/10/03 12:39:31;;;;;;;;;;;;;;;29.08;41.27;94575.31;5076514;28;8756;-61
2023/10/03 12:42:28;;;;;;;;;;;;;;;29.10;42.60;94572.75;5036234;28;7256;-62
2023/10/03 12:45:04;;;;;;;;;;;;;;;29.11;41.51;94567.97;5048902;28;7632;-61
2023/10/03 12:47:32;;;;;;;;;;;;;;;29.15;41.47;94573.94;5030402;28;7248;-62
2023/10/03 12:50:15;;;;;;;;;;;;;;;29.17;41.77;94567.91;5035234;28;9096;-61
2023/10/03 12:52:48;;;;;;;;;;;;;;;29.21;41.28;94571.13;5033524;28;7256;-61
2023/10/03 12:55:29;;;;;;;;;;;;;;;29.20;41.74;94573.13;5023063;28;9090;-60
2023/10/03 12:58:18;;;;;;;;;;;;;;;29.26;41.76;94575.78;5047811;28;7246;-60
2023/10/03 13:00:56;;;;;;;;;;;;;;;29.27;41.14;94580.81;5028726;28;9102;-60
2023/10/03 13:03:55;;;;;;;;;;;;;;;29.31;40.93;94581.25;5036687;28;7377;-60
2023/10/03 13:06:34;;;;;;;;;;;;;;;29.32;41.65;94579.22;5049913;28;7248;-60
2023/10/03 13:09:00;;;;;;;;;;;;;;;29.32;41.45;94576.47;5029582;28;7188;-60
2023/10/03 13:11:28;;;;;;;;;;;;;;;29.31;41.85;94569.41;5038706;28;6981;-60
2023/10/03 13:14:13;;;;;;;;;;;;;;;29.35;41.70;94581.66;5056774;28;6980;-60
2023/10/03 13:16:40;;;;;;;;;;;;;;;29.38;40.73;94588.19;5050787;28;7012;-60
2023/10/03 13:19:10;;;;;;;;;;;;;;;29.36;40.94;94588.69;5059180;28;7278;-60
2023/10/03 13:21:38;;;;;;;;;;;;;;;29.40;41.08;94586.38;5070717;28;9160;-60
2023/10/03 13:24:05;;;;;;;;;;;;;;;29.41;40.78;94589.88;5057771;28;7575;-60
2023/10/03 13:26:31;;;;;;;;;;;;;;;29.41;41.63;94590.63;5051819;28;9122;-60
2023/10/03 13:28:57;;;;;;;;;;;;;;;29.44;41.69;94586.81;5074443;28;7646;-60
2023/10/03 13:31:27;;;;;;;;;;;;;;;29.45;40.87;94595.88;5049959;28;7181;-60
2023/10/03 13:34:18;;;;;;;;;;;;;;;29.46;40.91;94589.03;5073727;28;8796;-60
2023/10/03 13:36:44;;;;;;;;;;;;;;;29.44;41.67;94588.81;5055829;28;7222;-60
2023/10/03 13:39:13;;;;;;;;;;;;;;;29.46;41.62;94591.81;5048142;28;7263;-60
2023/10/03 13:42:11;;;;;;;;;;;;;;;29.53;41.40;94599.50;5055504;28;7179;-60
2023/10/03 13:44:52;;;;;;;;;;;;;;;29.53;41.96;94607.81;5027436;28;8650;-60
2023/10/03 13:47:35;;;;;;;;;;;;;;;29.52;40.94;94617.38;5020667;28;7244;-60
2023/10/03 13:50:23;;;;;;;;;;;;;;;29.54;40.76;94606.50;5018354;28;6860;-60
2023/10/03 13:53:06;;;;;;;;;;;;;;;29.58;41.08;94624.31;5019001;28;7315;-60
2023/10/03 13:56:03;;;;;;;;;;;;;;;29.57;41.65;94627.63;5028291;28;7033;-60
2023/10/03 13:58:29;;;;;;;;;;;;;;;29.56;41.35;94628.91;4993629;28;7340;-60
2023/10/03 14:00:55;;;;;;;;;;;;;;;29.58;41.45;94640.22;4997672;28;7274;-60
2023/10/03 14:03:22;;;;;;;;;;;;;;;29.55;41.53;94638.50;4992424;28;6981;-55